Time;durP1;ratioP1;P1;durP2;ratioP2;P2;SDS_P1;SDS_P2;PMS_P1;PMS_P2;Temp;Humidity;BMP_temperature;BMP_pressure;BME280_temperature;BME280_humidity;BME280_pressure;Samples;Min_cycle;Max_cycle;Signal;HPM_P1;HPM_P2
2023/08/10 00:01:12;;;;;;;39.03;4.75;;;;;;;;;;5012494;28;20143;-59
2023/08/10 00:03:46;;;;;;;34.47;3.97;;;;;;;;;;5009012;28;20057;-59
2023/08/10 00:06:14;;;;;;;21.02;3.22;;;;;;;;;;5010796;28;20523;-59
2023/08/10 00:08:41;;;;;;;;;;;;;;;;;;5011865;28;20045;-59
2023/08/10 00:11:15;;;;;;;31.90;3.95;;;;;;;;;;5006098;28;19928;-71
2023/08/10 00:13:49;;;;;;;29.90;3.78;;;;;;;;;;5008802;28;20076;-73
2023/08/10 00:16:23;;;;;;;38.72;4.43;;;;;;;;;;5011721;28;20530;-71
2023/08/10 00:18:51;;;;;;;25.67;3.55;;;;;;;;;;5011787;28;20048;-71
2023/08/10 00:21:24;;;;;;;33.03;4.43;;;;;;;;;;5015204;28;20299;-70
2023/08/10 00:23:52;;;;;;;36.75;4.40;;;;;;;;;;5009233;28;20056;-64
2023/08/10 00:26:19;;;;;;;35.63;3.55;;;;;;;;;;5013341;28;20109;-64
2023/08/10 00:28:52;;;;;;;32.45;4.40;;;;;;;;;;5009855;28;20527;-64
2023/08/10 00:31:19;;;;;;;30.15;3.53;;;;;;;;;;5014445;28;20049;-64
2023/08/10 00:33:53;;;;;;;27.80;3.80;;;;;;;;;;5010436;28;20058;-65
2023/08/10 00:36:21;;;;;;;17.38;2.88;;;;;;;;;;5011919;28;20112;-64
2023/08/10 00:38:48;;;;;;;32.10;3.85;;;;;;;;;;5012551;28;20518;-60
2023/08/10 00:41:21;;;;;;;23.48;3.67;;;;;;;;;;5014439;28;20172;-61
2023/08/10 00:43:49;;;;;;;24.77;4.05;;;;;;;;;;5014327;28;20053;-60
2023/08/10 00:46:22;;;;;;;39.78;5.03;;;;;;;;;;5014238;28;20095;-60
2023/08/10 00:48:50;;;;;;;24.92;3.60;;;;;;;;;;5014158;28;20196;-64
2023/08/10 00:51:17;;;;;;;32.67;4.85;;;;;;;;;;4988450;28;20053;-60
2023/08/10 00:54:04;;;;;;;39.95;4.43;;;;;;;;;;4998491;28;20093;-57
2023/08/10 00:56:38;;;;;;;25.90;3.60;;;;;;;;;;4992402;28;20057;-56
2023/08/10 00:59:12;;;;;;;25.35;3.15;;;;;;;;;;4991103;28;21051;-59
2023/08/10 01:01:39;;;;;;;22.98;3.30;;;;;;;;;;4996469;28;20053;-57
2023/08/10 01:04:07;;;;;;;26.08;3.80;;;;;;;;;;4989283;28;20053;-57
2023/08/10 01:06:52;;;;;;;25.77;3.70;;;;;;;;;;4997820;28;20171;-54
2023/08/10 01:09:20;;;;;;;17.75;3.60;;;;;;;;;;4992455;28;20053;-54
2023/08/10 01:12:02;;;;;;;21.27;3.20;;;;;;;;;;4988959;28;20057;-50
2023/08/10 01:14:43;;;;;;;23.20;4.15;;;;;;;;;;4991442;28;20062;-49
2023/08/10 01:17:22;;;;;;;21.67;3.13;;;;;;;;;;4991656;28;20827;-60
2023/08/10 01:19:50;;;;;;;19.50;3.35;;;;;;;;;;4992216;28;20477;-57
2023/08/10 01:22:50;;;;;;;27.17;3.75;;;;;;;;;;4990723;28;20085;-59
2023/08/10 01:25:17;;;;;;;17.92;3.17;;;;;;;;;;4991022;28;20141;-59
2023/08/10 01:27:52;;;;;;;21.60;3.50;;;;;;;;;;4992994;28;20054;-60
2023/08/10 01:30:20;;;;;;;23.95;3.28;;;;;;;;;;4992742;28;20514;-59
2023/08/10 01:32:47;;;;;;;22.05;3.58;;;;;;;;;;4992160;28;20046;-59
2023/08/10 01:35:21;;;;;;;13.90;3.08;;;;;;;;;;4995587;28;20054;-55
2023/08/10 01:37:49;;;;;;;18.38;3.60;;;;;;;;;;4993416;28;20105;-53
2023/08/10 01:40:22;;;;;;;19.48;3.10;;;;;;;;;;4992353;28;20072;-55
2023/08/10 01:42:49;;;;;;;15.50;2.88;;;;;;;;;;4993319;28;20057;-53
2023/08/10 01:45:17;;;;;;;22.67;3.28;;;;;;;;;;4987731;28;20383;-53
2023/08/10 01:47:51;;;;;;;18.90;3.28;;;;;;;;;;4992836;28;20116;-64
2023/08/10 01:50:19;;;;;;;22.02;3.53;;;;;;;;;;4993379;28;20065;-64
2023/08/10 01:52:57;;;;;;;14.55;2.78;;;;;;;;;;4992532;28;20396;-64
2023/08/10 01:55:31;;;;;;;22.00;2.92;;;;;;;;;;4992879;28;20057;-65
2023/08/10 01:58:04;;;;;;;22.00;3.08;;;;;;;;;;4991560;28;20064;-65
2023/08/10 02:00:33;;;;;;;22.20;3.95;;;;;;;;;;4989089;28;20142;-66
2023/08/10 02:03:01;;;;;;;23.17;3.25;;;;;;;;;;4990920;28;20064;-64
2023/08/10 02:05:34;;;;;;;18.33;3.00;;;;;;;;;;4993149;28;20247;-61
2023/08/10 02:08:01;;;;;;;19.38;3.47;;;;;;;;;;4992444;28;20101;-60
2023/08/10 02:10:35;;;;;;;18.35;3.20;;;;;;;;;;4990623;28;20062;-60
2023/08/10 02:13:02;;;;;;;25.23;3.30;;;;;;;;;;4987729;28;20104;-60
2023/08/10 02:15:36;;;;;;;13.18;3.00;;;;;;;;;;4992935;28;20053;-59
2023/08/10 02:18:04;;;;;;;18.80;3.17;;;;;;;;;;4992872;28;20438;-72
2023/08/10 02:20:32;;;;;;;15.38;3.15;;;;;;;;;;4997039;28;20047;-72
2023/08/10 02:23:06;;;;;;;20.63;3.60;;;;;;;;;;4996086;28;20107;-72
2023/08/10 02:25:34;;;;;;;9.98;2.88;;;;;;;;;;4992821;28;20058;-71
2023/08/10 02:28:01;;;;;;;13.95;3.17;;;;;;;;;;4993805;28;20510;-72
2023/08/10 02:30:35;;;;;;;17.10;2.90;;;;;;;;;;4996398;28;20057;-71
2023/08/10 02:33:03;;;;;;;17.70;2.97;;;;;;;;;;4991917;28;20059;-61
2023/08/10 02:35:36;;;;;;;12.32;2.67;;;;;;;;;;4996430;28;20058;-61
2023/08/10 02:38:03;;;;;;;13.88;3.05;;;;;;;;;;4992229;28;20054;-61
2023/08/10 02:40:31;;;;;;;22.70;3.67;;;;;;;;;;4990053;28;20074;-60
2023/08/10 02:43:04;;;;;;;12.73;3.03;;;;;;;;;;4998319;28;20528;-53
2023/08/10 02:45:31;;;;;;;9.00;2.80;;;;;;;;;;4990134;28;20058;-56
2023/08/10 02:48:05;;;;;;;18.48;3.00;;;;;;;;;;4993682;28;20066;-57
2023/08/10 02:50:33;;;;;;;10.15;2.70;;;;;;;;;;4995251;28;20064;-56
2023/08/10 02:53:00;;;;;;;13.55;2.65;;;;;;;;;;4992834;28;20563;-55
2023/08/10 02:55:41;;;;;;;11.15;2.78;;;;;;;;;;4992865;28;21207;-57
2023/08/10 02:58:08;;;;;;;6.47;2.50;;;;;;;;;;4995469;28;20058;-57
2023/08/10 03:00:42;;;;;;;17.23;2.72;;;;;;;;;;4990999;28;20050;-59
2023/08/10 03:03:10;;;;;;;;;;;;;;;;;;4994585;28;20058;-60
2023/08/10 03:05:37;;;;;;;12.90;2.90;;;;;;;;;;4993545;28;19932;-59
2023/08/10 03:08:11;;;;;;;7.70;2.38;;;;;;;;;;4997237;28;20062;-60
2023/08/10 03:10:38;;;;;;;9.73;2.63;;;;;;;;;;4992748;28;20109;-52
2023/08/10 03:13:12;;;;;;;10.45;2.13;;;;;;;;;;4994964;28;20058;-59
2023/08/10 03:15:40;;;;;;;11.20;2.08;;;;;;;;;;4992926;28;20610;-65
2023/08/10 03:18:07;;;;;;;8.25;2.40;;;;;;;;;;4994549;28;20045;-65
2023/08/10 03:20:41;;;;;;;5.53;2.17;;;;;;;;;;4993475;28;20073;-64
2023/08/10 03:23:08;;;;;;;7.25;2.10;;;;;;;;;;4994621;28;20046;-64
2023/08/10 03:25:36;;;;;;;7.45;2.10;;;;;;;;;;4991577;28;20570;-64
2023/08/10 03:28:09;;;;;;;6.07;1.77;;;;;;;;;;4997599;28;20137;-64
2023/08/10 03:30:37;;;;;;;12.00;2.15;;;;;;;;;;4988590;28;20628;-71
2023/08/10 03:33:10;;;;;;;4.72;2.05;;;;;;;;;;4993111;28;20056;-72
2023/08/10 03:35:37;;;;;;;7.32;1.80;;;;;;;;;;4997796;28;20065;-71
2023/08/10 03:38:05;;;;;;;11.65;1.98;;;;;;;;;;4990050;28;20527;-71
2023/08/10 03:40:39;;;;;;;7.97;2.03;;;;;;;;;;4997295;28;20500;-52
2023/08/10 03:43:06;;;;;;;20.38;2.63;;;;;;;;;;4995408;28;20073;-64
2023/08/10 03:45:34;;;;;;;9.00;2.10;;;;;;;;;;4990364;28;20069;-64
2023/08/10 03:48:07;;;;;;;7.25;1.80;;;;;;;;;;4992045;28;20061;-64
2023/08/10 03:50:34;;;;;;;7.30;1.98;;;;;;;;;;4996714;28;20049;-64
2023/08/10 03:53:08;;;;;;;9.35;1.80;;;;;;;;;;4993897;28;20133;-64
2023/08/10 03:55:48;;;;;;;10.95;2.60;;;;;;;;;;4990934;28;20504;-63
2023/08/10 03:58:23;;;;;;;3.50;1.45;;;;;;;;;;4993798;28;20050;-60
2023/08/10 04:00:50;;;;;;;11.10;1.77;;;;;;;;;;4994020;28;20054;-59
2023/08/10 04:03:18;;;;;;;11.63;1.85;;;;;;;;;;4996893;28;20057;-59
2023/08/10 04:05:51;;;;;;;8.65;1.90;;;;;;;;;;4996953;28;20058;-59
2023/08/10 04:08:19;;;;;;;10.65;2.35;;;;;;;;;;4999063;28;20598;-58
2023/08/10 04:10:52;;;;;;;11.18;1.85;;;;;;;;;;4993909;28;20159;-60
2023/08/10 04:13:19;;;;;;;8.98;1.70;;;;;;;;;;4997999;28;20446;-60
2023/08/10 04:15:48;;;;;;;6.07;2.17;;;;;;;;;;4992473;28;20060;-61
2023/08/10 04:18:22;;;;;;;8.68;1.70;;;;;;;;;;4994736;28;20607;-61
2023/08/10 04:20:49;;;;;;;6.80;2.00;;;;;;;;;;4992216;28;20448;-61
2023/08/10 04:23:23;;;;;;;6.40;1.80;;;;;;;;;;4995901;28;20188;-61
2023/08/10 04:25:50;;;;;;;5.78;1.73;;;;;;;;;;4994635;28;20139;-61
2023/08/10 04:28:18;;;;;;;6.65;1.60;;;;;;;;;;4991883;28;20054;-61
2023/08/10 04:30:51;;;;;;;4.55;1.55;;;;;;;;;;4995038;28;20604;-61
2023/08/10 04:33:19;;;;;;;7.50;1.98;;;;;;;;;;4993587;28;20438;-61
2023/08/10 04:35:53;;;;;;;8.77;1.80;;;;;;;;;;4985639;28;20204;-55
2023/08/10 04:38:21;;;;;;;7.05;2.15;;;;;;;;;;4991622;28;20626;-61
2023/08/10 04:40:48;;;;;;;6.38;1.45;;;;;;;;;;4991960;28;21043;-73
2023/08/10 04:43:22;;;;;;;3.70;1.63;;;;;;;;;;4994837;28;20082;-73
2023/08/10 04:45:49;;;;;;;10.98;1.70;;;;;;;;;;4994177;28;20565;-73
2023/08/10 04:48:23;;;;;;;10.13;1.67;;;;;;;;;;4996469;28;20148;-73
2023/08/10 04:50:51;;;;;;;5.82;1.27;;;;;;;;;;4992022;28;20077;-73
2023/08/10 04:53:26;;;;;;;10.88;1.58;;;;;;;;;;4990857;28;20062;-73
2023/08/10 04:56:00;;;;;;;16.73;2.10;;;;;;;;;;4994328;28;20062;-62
2023/08/10 04:58:34;;;;;;;4.28;1.40;;;;;;;;;;4991921;28;20062;-62
2023/08/10 05:01:02;;;;;;;12.05;1.90;;;;;;;;;;4992050;28;20045;-61
2023/08/10 05:03:29;;;;;;;8.77;1.52;;;;;;;;;;4995532;28;20523;-61
2023/08/10 05:06:03;;;;;;;7.90;1.70;;;;;;;;;;4997782;28;20064;-59
2023/08/10 05:08:31;;;;;;;7.07;1.50;;;;;;;;;;4995676;28;20050;-61
2023/08/10 05:11:05;;;;;;;2.50;1.23;;;;;;;;;;4992805;28;20589;-62
2023/08/10 05:13:33;;;;;;;4.72;1.30;;;;;;;;;;4996162;28;20054;-62
2023/08/10 05:16:02;;;;;;;6.30;1.75;;;;;;;;;;4985574;28;20081;-61
2023/08/10 05:18:35;;;;;;;5.28;1.10;;;;;;;;;;4994362;28;20113;-61
2023/08/10 05:21:03;;;;;;;7.72;1.23;;;;;;;;;;4995418;28;20543;-61
2023/08/10 05:23:38;;;;;;;6.13;1.40;;;;;;;;;;4996298;28;20062;-59
2023/08/10 05:26:05;;;;;;;;;;;;;;;;;;4992438;28;20113;-58
2023/08/10 05:28:32;;;;;;;4.88;1.27;;;;;;;;;;4990533;28;19977;-58
2023/08/10 05:31:06;;;;;;;9.30;1.40;;;;;;;;;;4990793;28;20068;-59
2023/08/10 05:33:34;;;;;;;3.47;1.20;;;;;;;;;;4994370;28;20068;-73
2023/08/10 05:36:07;;;;;;;11.20;1.77;;;;;;;;;;4994326;28;20042;-53
2023/08/10 05:38:35;;;;;;;;;;;;;;;;;;4995757;28;20054;-49
2023/08/10 05:41:02;;;;;;;7.93;1.20;;;;;;;;;;4993514;28;19925;-53
2023/08/10 05:43:36;;;;;;;6.55;1.75;;;;;;;;;;4999013;28;20129;-51
2023/08/10 05:46:04;;;;;;;3.05;1.00;;;;;;;;;;4993749;28;20564;-53
2023/08/10 05:48:31;;;;;;;8.70;1.67;;;;;;;;;;4997169;28;20057;-51
2023/08/10 05:51:05;;;;;;;2.00;1.15;;;;;;;;;;4989441;28;20080;-52
2023/08/10 05:53:33;;;;;;;8.27;1.27;;;;;;;;;;4990846;28;20049;-53
2023/08/10 05:56:00;;;;;;;3.92;1.10;;;;;;;;;;4994585;28;20727;-53
2023/08/10 05:58:34;;;;;;;5.45;1.40;;;;;;;;;;4994524;28;20152;-49
2023/08/10 06:01:05;;;;;;;;;;;;;;;;;;4990029;28;20058;-49
2023/08/10 06:03:38;;;;;;;9.07;1.45;;;;;;;;;;4997528;28;19925;-55
2023/08/10 06:06:12;;;;;;;4.68;0.80;;;;;;;;;;5000516;28;20149;-59
2023/08/10 06:08:40;;;;;;;9.45;1.55;;;;;;;;;;4996477;28;20054;-59
2023/08/10 06:11:08;;;;;;;4.80;1.05;;;;;;;;;;4993780;28;20065;-59
2023/08/10 06:13:46;;;;;;;6.90;1.08;;;;;;;;;;4997757;28;20045;-59
2023/08/10 06:16:13;;;;;;;5.10;1.10;;;;;;;;;;4991674;28;20520;-59
2023/08/10 06:18:51;;;;;;;8.45;1.00;;;;;;;;;;4993924;28;20050;-59
2023/08/10 06:21:19;;;;;;;7.38;1.13;;;;;;;;;;4996178;28;20516;-73
2023/08/10 06:23:46;;;;;;;;;;;;;;;;;;4999705;28;20138;-73
2023/08/10 06:26:19;;;;;;;6.82;1.15;;;;;;;;;;4993478;28;20359;-73
2023/08/10 06:28:46;;;;;;;8.43;1.38;;;;;;;;;;4997967;28;20058;-73
2023/08/10 06:31:20;;;;;;;5.47;0.80;;;;;;;;;;4995442;28;20170;-61
2023/08/10 06:33:48;;;;;;;5.82;1.45;;;;;;;;;;4996322;28;20641;-61
2023/08/10 06:36:15;;;;;;;6.22;1.20;;;;;;;;;;4999198;28;20579;-60
2023/08/10 06:38:49;;;;;;;4.82;1.25;;;;;;;;;;4992532;28;20072;-61
2023/08/10 06:41:16;;;;;;;3.22;0.93;;;;;;;;;;4990218;28;20104;-61
2023/08/10 06:43:50;;;;;;;10.68;1.02;;;;;;;;;;4990894;28;20045;-61
2023/08/10 06:46:24;;;;;;;3.30;0.85;;;;;;;;;;4995543;28;20066;-61
2023/08/10 06:48:52;;;;;;;3.22;0.73;;;;;;;;;;4997868;28;21005;-59
2023/08/10 06:51:19;;;;;;;6.28;1.15;;;;;;;;;;4996367;28;20057;-60
2023/08/10 06:53:53;;;;;;;6.75;1.10;;;;;;;;;;4994256;28;20116;-60
2023/08/10 06:56:27;;;;;;;4.80;1.10;;;;;;;;;;4993872;28;20112;-59
2023/08/10 06:59:02;;;;;;;2.83;0.52;;;;;;;;;;4990041;28;20494;-59
2023/08/10 07:01:32;;;;;;;3.55;0.75;;;;;;;;;;4996599;28;20061;-56
2023/08/10 07:03:59;;;;;;;6.10;0.80;;;;;;;;;;4993781;28;20049;-56
2023/08/10 07:06:33;;;;;;;4.90;0.95;;;;;;;;;;4997171;28;20062;-56
2023/08/10 07:09:00;;;;;;;2.55;0.50;;;;;;;;;;4994381;28;20477;-56
2023/08/10 07:11:34;;;;;;;4.20;0.90;;;;;;;;;;4993113;28;20790;-56
2023/08/10 07:14:03;;;;;;;5.10;0.90;;;;;;;;;;4990333;28;20132;-55
2023/08/10 07:16:30;;;;;;;4.00;0.73;;;;;;;;;;5000095;28;20522;-58
2023/08/10 07:19:03;;;;;;;3.35;0.77;;;;;;;;;;4994663;28;23017;-58
2023/08/10 07:21:31;;;;;;;0.93;0.38;;;;;;;;;;4997490;28;20611;-58
2023/08/10 07:24:05;;;;;;;3.47;1.00;;;;;;;;;;4992794;28;20046;-58
2023/08/10 07:26:33;;;;;;;7.25;1.17;;;;;;;;;;4993312;28;20065;-56
2023/08/10 07:29:00;;;;;;;5.20;1.20;;;;;;;;;;4994693;28;20570;-72
2023/08/10 07:31:34;;;;;;;11.85;1.15;;;;;;;;;;4992993;28;20117;-55
2023/08/10 07:34:01;;;;;;;8.43;1.15;;;;;;;;;;4990581;28;20124;-54
2023/08/10 07:36:35;;;;;;;3.63;1.17;;;;;;;;;;4997324;28;20116;-55
2023/08/10 07:39:03;;;;;;;3.75;0.88;;;;;;;;;;4993445;28;20051;-52
2023/08/10 07:41:31;;;;;;;5.10;0.80;;;;;;;;;;4993591;28;20574;-51
2023/08/10 07:44:04;;;;;;;4.93;0.90;;;;;;;;;;4995493;28;20062;-52
2023/08/10 07:46:32;;;;;;;6.68;1.00;;;;;;;;;;4997197;28;20045;-59
2023/08/10 07:49:07;;;;;;;3.55;0.50;;;;;;;;;;4999129;28;20145;-59
2023/08/10 07:51:34;;;;;;;1.75;0.47;;;;;;;;;;4997661;28;20435;-59
2023/08/10 07:54:02;;;;;;;1.55;0.60;;;;;;;;;;4994842;28;20045;-59
2023/08/10 07:56:42;;;;;;;3.90;0.70;;;;;;;;;;4992102;28;20062;-51
2023/08/10 07:59:11;;;;;;;2.58;0.75;;;;;;;;;;4990934;28;20101;-64
2023/08/10 08:01:45;;;;;;;6.43;0.73;;;;;;;;;;4996809;28;20089;-64
2023/08/10 08:04:12;;;;;;;1.98;0.50;;;;;;;;;;4992092;28;20050;-64
2023/08/10 08:06:40;;;;;;;3.63;0.57;;;;;;;;;;4996042;28;20355;-64
2023/08/10 08:09:13;;;;;;;2.15;0.55;;;;;;;;;;4992954;28;20057;-64
2023/08/10 08:11:41;;;;;;;3.47;0.70;;;;;;;;;;4994033;28;20061;-64
2023/08/10 08:14:15;;;;;;;2.63;0.47;;;;;;;;;;4992149;28;21161;-59
2023/08/10 08:16:42;;;;;;;1.48;0.50;;;;;;;;;;4992731;28;20081;-58
2023/08/10 08:19:10;;;;;;;1.38;0.43;;;;;;;;;;4993940;28;20062;-62
2023/08/10 08:21:48;;;;;;;1.85;0.65;;;;;;;;;;4997186;28;20065;-59
2023/08/10 08:24:17;;;;;;;1.73;0.60;;;;;;;;;;4993948;28;20057;-59
2023/08/10 08:26:44;;;;;;;1.02;0.60;;;;;;;;;;4993659;28;20594;-73
2023/08/10 08:29:19;;;;;;;1.65;0.68;;;;;;;;;;4990638;28;20542;-72
2023/08/10 08:32:01;;;;;;;4.97;0.50;;;;;;;;;;4992086;28;20531;-73
2023/08/10 08:34:47;;;;;;;5.20;1.05;;;;;;;;;;4991999;28;20057;-72
2023/08/10 08:37:14;;;;;;;2.17;0.50;;;;;;;;;;4992157;28;20104;-72
2023/08/10 08:39:48;;;;;;;2.25;0.60;;;;;;;;;;4989575;28;20520;-73
2023/08/10 08:42:22;;;;;;;4.13;0.80;;;;;;;;;;4994359;28;20054;-50
2023/08/10 08:44:56;;;;;;;3.72;0.60;;;;;;;;;;4990785;28;20494;-55
2023/08/10 08:47:25;;;;;;;1.35;0.60;;;;;;;;;;4993098;28;20090;-55
2023/08/10 08:49:53;;;;;;;1.33;0.60;;;;;;;;;;4993777;28;20050;-54
2023/08/10 08:52:26;;;;;;;1.83;0.43;;;;;;;;;;4994995;28;20507;-69
2023/08/10 08:54:54;;;;;;;0.65;0.47;;;;;;;;;;4995389;28;20498;-53
2023/08/10 08:57:35;;;;;;;5.25;0.85;;;;;;;;;;4994289;28;20053;-59
2023/08/10 09:00:03;;;;;;;1.13;0.40;;;;;;;;;;4991809;28;20112;-59
2023/08/10 09:02:37;;;;;;;3.17;0.47;;;;;;;;;;4990414;28;20061;-59
2023/08/10 09:05:04;;;;;;;1.58;0.43;;;;;;;;;;4992838;28;20140;-59
2023/08/10 09:07:31;;;;;;;0.57;0.30;;;;;;;;;;4991148;28;20168;-59
2023/08/10 09:10:12;;;;;;;3.03;0.38;;;;;;;;;;4995089;28;20058;-60
2023/08/10 09:12:40;;;;;;;3.13;0.30;;;;;;;;;;4993165;28;20049;-50
2023/08/10 09:15:16;;;;;;;2.55;0.60;;;;;;;;;;4991603;28;20149;-51
2023/08/10 09:17:46;;;;;;;0.40;0.40;;;;;;;;;;4995214;28;20049;-54
2023/08/10 09:20:20;;;;;;;1.83;0.75;;;;;;;;;;4992886;28;20108;-50
2023/08/10 09:22:58;;;;;;;2.53;0.60;;;;;;;;;;4993274;28;20076;-60
2023/08/10 09:25:26;;;;;;;2.88;0.70;;;;;;;;;;4989802;28;20397;-59
2023/08/10 09:27:59;;;;;;;3.90;0.50;;;;;;;;;;4998221;28;20049;-59
2023/08/10 09:30:27;;;;;;;1.70;0.60;;;;;;;;;;4992071;28;20061;-59
2023/08/10 09:32:54;;;;;;;1.55;0.55;;;;;;;;;;4994137;28;20045;-59
2023/08/10 09:35:30;;;;;;;3.40;0.80;;;;;;;;;;4991866;28;20185;-59
2023/08/10 09:38:01;;;;;;;3.92;0.90;;;;;;;;;;4989325;28;20374;-58
2023/08/10 09:40:35;;;;;;;7.53;1.15;;;;;;;;;;4992039;28;20057;-66
2023/08/10 09:43:08;;;;;;;2.63;0.82;;;;;;;;;;4990887;28;20125;-67
2023/08/10 09:45:43;;;;;;;1.35;0.55;;;;;;;;;;4992859;28;20058;-67
2023/08/10 09:48:12;;;;;;;3.47;0.75;;;;;;;;;;4994527;28;20057;-68
2023/08/10 09:50:39;;;;;;;4.68;0.88;;;;;;;;;;4993388;28;20050;-52
2023/08/10 09:53:13;;;;;;;8.23;0.93;;;;;;;;;;4998134;28;20055;-59
2023/08/10 09:55:47;;;;;;;4.72;1.40;;;;;;;;;;4990356;28;20140;-59
2023/08/10 09:58:34;;;;;;;4.18;1.48;;;;;;;;;;4991014;28;20196;-59
2023/08/10 10:01:02;;;;;;;5.03;0.85;;;;;;;;;;4994709;28;20054;-59
2023/08/10 10:03:42;;;;;;;4.55;0.63;;;;;;;;;;4993801;28;20094;-59
2023/08/10 10:06:16;;;;;;;7.00;0.63;;;;;;;;;;4992229;28;20050;-59
2023/08/10 10:08:56;;;;;;;4.72;0.70;;;;;;;;;;4991031;28;20066;-59
2023/08/10 10:11:30;;;;;;;5.55;0.65;;;;;;;;;;4993144;28;20062;-60
2023/08/10 10:14:04;;;;;;;1.92;0.60;;;;;;;;;;4995633;28;20528;-58
2023/08/10 10:16:37;;;;;;;7.65;0.95;;;;;;;;;;4990885;28;20125;-59
2023/08/10 10:19:05;;;;;;;2.70;0.60;;;;;;;;;;4996644;28;20057;-54
2023/08/10 10:21:32;;;;;;;6.88;0.77;;;;;;;;;;4989957;28;20074;-49
2023/08/10 10:24:12;;;;;;;4.07;1.08;;;;;;;;;;4993945;28;20058;-53
2023/08/10 10:26:39;;;;;;;2.15;0.47;;;;;;;;;;4994500;28;20774;-54
2023/08/10 10:29:15;;;;;;;4.28;0.85;;;;;;;;;;4989813;28;20077;-55
2023/08/10 10:31:42;;;;;;;4.65;0.77;;;;;;;;;;4991080;28;20069;-55
2023/08/10 10:34:18;;;;;;;5.03;0.90;;;;;;;;;;4985553;28;20109;-53
2023/08/10 10:36:46;;;;;;;4.25;0.60;;;;;;;;;;4998583;28;20065;-59
2023/08/10 10:39:21;;;;;;;3.45;0.85;;;;;;;;;;4988011;28;20057;-59
2023/08/10 10:41:50;;;;;;;1.42;0.50;;;;;;;;;;4983737;28;20057;-59
2023/08/10 10:44:19;;;;;;;1.55;0.70;;;;;;;;;;4988228;28;20754;-59
2023/08/10 10:46:53;;;;;;;3.97;1.00;;;;;;;;;;4994099;28;20061;-59
2023/08/10 10:49:21;;;;;;;3.15;0.60;;;;;;;;;;5000172;28;20528;-62
2023/08/10 10:51:59;;;;;;;2.10;0.75;;;;;;;;;;4993758;28;20122;-61
2023/08/10 10:54:28;;;;;;;3.00;0.95;;;;;;;;;;4993300;28;20522;-61
2023/08/10 10:56:56;;;;;;;5.82;0.60;;;;;;;;;;4998788;28;20653;-61
2023/08/10 10:59:29;;;;;;;5.40;0.50;;;;;;;;;;4997325;28;20065;-61
2023/08/10 11:01:58;;;;;;;1.35;0.60;;;;;;;;;;4997224;28;20058;-61
2023/08/10 11:04:32;;;;;;;3.40;0.68;;;;;;;;;;4996345;28;20294;-67
2023/08/10 11:07:00;;;;;;;5.65;0.90;;;;;;;;;;5002715;28;20520;-67
2023/08/10 11:09:27;;;;;;;0.60;0.43;;;;;;;;;;4995860;28;20072;-67
2023/08/10 11:12:02;;;;;;;3.13;0.57;;;;;;;;;;4993502;28;20320;-68
2023/08/10 11:14:31;;;;;;;3.08;0.60;;;;;;;;;;4992116;28;20553;-60
2023/08/10 11:17:05;;;;;;;2.65;0.73;;;;;;;;;;4993409;28;20050;-68
2023/08/10 11:19:33;;;;;;;1.67;0.52;;;;;;;;;;4993783;28;20046;-61
2023/08/10 11:22:00;;;;;;;1.30;0.50;;;;;;;;;;4996111;28;20088;-60
2023/08/10 11:24:34;;;;;;;4.32;0.40;;;;;;;;;;4994037;28;20553;-60
2023/08/10 11:27:02;;;;;;;1.50;0.60;;;;;;;;;;4993486;28;20093;-61
2023/08/10 11:29:35;;;;;;;1.70;0.60;;;;;;;;;;4993115;28;20424;-60
2023/08/10 11:32:03;;;;;;;1.45;0.50;;;;;;;;;;4998276;28;20107;-61
2023/08/10 11:34:30;;;;;;;;;;;;;;;;;;4995589;28;20053;-52
2023/08/10 11:37:04;;;;;;;3.80;0.43;;;;;;;;;;4997786;28;19921;-53
2023/08/10 11:39:32;;;;;;;2.67;0.63;;;;;;;;;;4994653;28;20101;-52
2023/08/10 11:42:06;;;;;;;6.13;0.70;;;;;;;;;;4991160;28;20138;-52
2023/08/10 11:44:43;;;;;;;1.88;0.50;;;;;;;;;;4994358;28;20053;-59
2023/08/10 11:47:17;;;;;;;2.88;0.52;;;;;;;;;;4995088;28;20065;-58
2023/08/10 11:49:50;;;;;;;1.10;0.43;;;;;;;;;;4994850;28;20164;-54
2023/08/10 11:52:17;;;;;;;4.47;0.40;;;;;;;;;;4998454;28;20057;-54
2023/08/10 11:54:58;;;;;;;2.10;0.40;;;;;;;;;;4992242;28;20109;-54
2023/08/10 11:57:36;;;;;;;2.30;0.50;;;;;;;;;;4993951;28;20528;-52
2023/08/10 12:00:25;;;;;;;3.03;0.85;;;;;;;;;;4991342;28;20099;-55
2023/08/10 12:03:13;;;;;;;2.20;0.35;;;;;;;;;;4994806;28;20113;-54
2023/08/10 12:05:54;;;;;;;2.35;0.63;;;;;;;;;;4993327;28;20105;-54
2023/08/10 12:08:23;;;;;;;0.68;0.35;;;;;;;;;;4991373;28;20381;-55
2023/08/10 12:11:01;;;;;;;0.77;0.32;;;;;;;;;;4991807;28;20249;-55
2023/08/10 12:13:28;;;;;;;1.20;0.55;;;;;;;;;;4993490;28;20057;-56
2023/08/10 12:16:03;;;;;;;2.78;0.40;;;;;;;;;;4992277;28;20546;-54
2023/08/10 12:18:30;;;;;;;2.00;0.30;;;;;;;;;;4995665;28;20046;-54
2023/08/10 12:20:58;;;;;;;2.60;0.38;;;;;;;;;;4991741;28;20113;-51
2023/08/10 12:23:31;;;;;;;3.97;1.25;;;;;;;;;;4999596;28;20052;-53
2023/08/10 12:25:59;;;;;;;1.08;0.50;;;;;;;;;;4993245;28;20098;-54
2023/08/10 12:28:26;;;;;;;2.38;0.43;;;;;;;;;;4992721;28;20091;-54
2023/08/10 12:31:04;;;;;;;3.03;0.47;;;;;;;;;;4993652;28;20179;-60
2023/08/10 12:33:31;;;;;;;2.17;0.52;;;;;;;;;;4996288;28;20046;-60
2023/08/10 12:36:06;;;;;;;2.30;0.30;;;;;;;;;;4992374;28;20058;-60
2023/08/10 12:38:33;;;;;;;1.20;0.43;;;;;;;;;;4996100;28;20062;-60
2023/08/10 12:41:00;;;;;;;5.93;0.60;;;;;;;;;;4992781;28;20057;-60
2023/08/10 12:43:34;;;;;;;1.52;0.50;;;;;;;;;;4994660;28;20053;-67
2023/08/10 12:46:02;;;;;;;0.93;0.50;;;;;;;;;;4991752;28;20061;-67
2023/08/10 12:48:36;;;;;;;0.98;0.32;;;;;;;;;;4992044;28;20128;-67
2023/08/10 12:51:07;;;;;;;3.08;0.40;;;;;;;;;;4991686;28;20057;-67
2023/08/10 12:53:34;;;;;;;1.58;0.50;;;;;;;;;;4990032;28;20108;-67
2023/08/10 12:56:21;;;;;;;4.20;0.55;;;;;;;;;;5003820;28;20502;-68
2023/08/10 12:58:48;;;;;;;2.83;0.68;;;;;;;;;;5013386;28;20096;-61
2023/08/10 13:01:23;;;;;;;3.92;0.55;;;;;;;;;;5013815;28;20534;-61
2023/08/10 13:03:50;;;;;;;;;;;;;;;;;;5013056;28;20190;-62
2023/08/10 13:06:17;;;;;;;1.52;0.43;;;;;;;;;;5008459;28;19980;-61
2023/08/10 13:08:50;;;;;;;1.65;0.40;;;;;;;;;;5012568;28;20085;-67
2023/08/10 13:11:18;;;;;;;4.38;1.10;;;;;;;;;;5009908;28;20053;-49
2023/08/10 13:13:53;;;;;;;0.90;0.30;;;;;;;;;;5012240;28;20518;-53
2023/08/10 13:16:20;;;;;;;2.40;0.50;;;;;;;;;;5017180;28;20070;-50
2023/08/10 13:18:47;;;;;;;2.63;0.75;;;;;;;;;;5012757;28;20136;-51
2023/08/10 13:21:22;;;;;;;3.13;0.57;;;;;;;;;;5013593;28;20113;-54
2023/08/10 13:23:50;;;;;;;1.92;0.60;;;;;;;;;;5011648;28;20054;-52
2023/08/10 13:26:24;;;;;;;3.33;0.60;;;;;;;;;;5013410;28;20049;-61
2023/08/10 13:28:51;;;;;;;1.45;0.40;;;;;;;;;;5014042;28;20049;-61
2023/08/10 13:31:18;;;;;;;3.25;0.60;;;;;;;;;;5011060;28;20590;-61
2023/08/10 13:33:52;;;;;;;1.92;0.50;;;;;;;;;;5012263;28;20435;-61
2023/08/10 13:36:20;;;;;;;0.90;0.30;;;;;;;;;;5012421;28;20064;-66
2023/08/10 13:38:54;;;;;;;0.95;0.43;;;;;;;;;;5009810;28;20664;-66
2023/08/10 13:41:21;;;;;;;2.80;0.52;;;;;;;;;;5010707;28;20049;-60
2023/08/10 13:43:48;;;;;;;0.32;0.32;;;;;;;;;;5012858;28;20054;-60
2023/08/10 13:46:24;;;;;;;3.72;0.65;;;;;;;;;;5013110;28;20049;-60
2023/08/10 13:48:53;;;;;;;2.53;0.50;;;;;;;;;;5010153;28;20165;-61
2023/08/10 13:51:26;;;;;;;0.93;0.40;;;;;;;;;;5012102;28;20057;-60
2023/08/10 13:53:54;;;;;;;3.83;0.73;;;;;;;;;;5012518;28;20208;-60
2023/08/10 13:56:22;;;;;;;1.45;0.40;;;;;;;;;;5002726;28;20727;-59
2023/08/10 13:58:55;;;;;;;3.10;0.40;;;;;;;;;;4993791;28;20797;-60
2023/08/10 14:01:23;;;;;;;5.00;0.63;;;;;;;;;;4994973;28;20572;-59
2023/08/10 14:03:50;;;;;;;3.22;0.60;;;;;;;;;;4991306;28;20061;-59
2023/08/10 14:06:23;;;;;;;1.58;0.40;;;;;;;;;;4981873;28;20077;-59
2023/08/10 14:08:52;;;;;;;4.57;0.40;;;;;;;;;;4993082;28;20056;-52
2023/08/10 14:11:26;;;;;;;2.45;0.50;;;;;;;;;;4993630;28;20567;-54
2023/08/10 14:13:53;;;;;;;;;;;;;;;;;;4996325;28;20057;-51
2023/08/10 14:16:20;;;;;;;1.88;0.85;;;;;;;;;;4994622;28;19952;-53
2023/08/10 14:18:53;;;;;;;3.58;0.70;;;;;;;;;;4995832;28;20050;-54
2023/08/10 14:21:21;;;;;;;4.88;0.60;;;;;;;;;;4995345;28;20404;-54
2023/08/10 14:23:54;;;;;;;2.42;0.43;;;;;;;;;;4997078;28;20114;-66
2023/08/10 14:26:22;;;;;;;4.97;0.50;;;;;;;;;;5001340;28;20128;-66
2023/08/10 14:28:49;;;;;;;1.15;0.40;;;;;;;;;;4998495;28;20058;-66
2023/08/10 14:31:23;;;;;;;3.45;0.40;;;;;;;;;;4998747;28;20058;-66
2023/08/10 14:33:51;;;;;;;3.08;0.70;;;;;;;;;;5000383;28;20159;-58
2023/08/10 14:36:18;;;;;;;;;;;;;;;;;;4995310;28;20573;-67
2023/08/10 14:38:53;;;;;;;0.38;0.10;;;;;;;;;;4999900;28;19983;-58
2023/08/10 14:41:20;;;;;;;1.73;0.45;;;;;;;;;;4995953;28;20069;-59
2023/08/10 14:43:54;;;;;;;1.55;0.32;;;;;;;;;;4998760;28;20145;-59
2023/08/10 14:46:22;;;;;;;1.88;0.40;;;;;;;;;;5002068;28;20451;-58
2023/08/10 14:48:50;;;;;;;1.15;0.30;;;;;;;;;;4998106;28;20049;-59
2023/08/10 14:51:25;;;;;;;1.30;0.38;;;;;;;;;;4999855;28;20053;-58
2023/08/10 14:53:52;;;;;;;;;;;;;;;;;;4999854;28;20061;-58
2023/08/10 14:56:25;;;;;;;3.92;0.30;;;;;;;;;;4996886;28;19929;-58
2023/08/10 14:59:09;;;;;;;0.60;0.38;;;;;;;;;;5018798;28;20100;-58
2023/08/10 15:01:42;;;;;;;0.75;0.30;;;;;;;;;;5020132;28;20507;-52
2023/08/10 15:04:11;;;;;;;1.45;0.32;;;;;;;;;;5013490;28;20054;-66
2023/08/10 15:06:39;;;;;;;4.10;0.43;;;;;;;;;;5018141;28;20061;-59